sensor_id;sensor_type;location;lat;lon;timestamp;temperature;humidity
68719;DHT22;55696;52.138;5.444;2022-11-20T00:01:21;2.60;71.30
68719;DHT22;55696;52.138;5.444;2022-11-20T00:03:49;2.60;72.50
68719;DHT22;55696;52.138;5.444;2022-11-20T00:06:18;2.50;71.50
68719;DHT22;55696;52.138;5.444;2022-11-20T00:08:46;2.50;72.10
68719;DHT22;55696;52.138;5.444;2022-11-20T00:11:21;2.60;71.70
68719;DHT22;55696;52.138;5.444;2022-11-20T00:13:51;2.50;73.10
68719;DHT22;55696;52.138;5.444;2022-11-20T00:16:23;2.60;72.40
68719;DHT22;55696;52.138;5.444;2022-11-20T00:18:51;2.50;72.30
68719;DHT22;55696;52.138;5.444;2022-11-20T00:21:25;2.30;71.90
68719;DHT22;55696;52.138;5.444;2022-11-20T00:23:55;2.30;73.70
68719;DHT22;55696;52.138;5.444;2022-11-20T00:26:23;3.30;73.40
68719;DHT22;55696;52.138;5.444;2022-11-20T00:28:56;2.20;72.80
68719;DHT22;55696;52.138;5.444;2022-11-20T00:31:23;2.20;73.10
68719;DHT22;55696;52.138;5.444;2022-11-20T00:33:50;2.30;71.90
68719;DHT22;55696;52.138;5.444;2022-11-20T00:36:22;2.20;71.80
68719;DHT22;55696;52.138;5.444;2022-11-20T00:38:56;2.10;73.80
68719;DHT22;55696;52.138;5.444;2022-11-20T00:41:25;2.10;73.50
68719;DHT22;55696;52.138;5.444;2022-11-20T00:43:53;2.10;72.90
68719;DHT22;55696;52.138;5.444;2022-11-20T00:46:22;2.00;73.20
68719;DHT22;55696;52.138;5.444;2022-11-20T00:48:49;2.10;73.50
68719;DHT22;55696;52.138;5.444;2022-11-20T00:51:22;2.10;72.20
68719;DHT22;55696;52.138;5.444;2022-11-20T00:53:49;2.10;74.10
68719;DHT22;55696;52.138;5.444;2022-11-20T00:56:18;2.20;72.40
68719;DHT22;55696;52.138;5.444;2022-11-20T00:58:46;2.80;73.60
68719;DHT22;55696;52.138;5.444;2022-11-20T01:01:24;2.20;73.10
68719;DHT22;55696;52.138;5.444;2022-11-20T01:03:54;2.40;74.40
68719;DHT22;55696;52.138;5.444;2022-11-20T01:08:52;2.40;73.30
68719;DHT22;55696;52.138;5.444;2022-11-20T01:11:22;2.30;72.90
68719;DHT22;55696;52.138;5.444;2022-11-20T01:13:50;2.30;73.00
68719;DHT22;55696;52.138;5.444;2022-11-20T01:16:20;2.30;72.90
68719;DHT22;55696;52.138;5.444;2022-11-20T01:18:49;2.30;73.50
68719;DHT22;55696;52.138;5.444;2022-11-20T01:21:24;2.30;73.20
68719;DHT22;55696;52.138;5.444;2022-11-20T01:23:52;2.30;73.90
68719;DHT22;55696;52.138;5.444;2022-11-20T01:26:21;2.30;72.00
68719;DHT22;55696;52.138;5.444;2022-11-20T01:28:48;2.20;73.00
68719;DHT22;55696;52.138;5.444;2022-11-20T01:31:29;2.20;72.60
68719;DHT22;55696;52.138;5.444;2022-11-20T01:34:00;2.20;73.70
68719;DHT22;55696;52.138;5.444;2022-11-20T01:36:29;2.20;73.50
68719;DHT22;55696;52.138;5.444;2022-11-20T01:39:00;2.10;73.60
68719;DHT22;55696;52.138;5.444;2022-11-20T01:41:29;2.10;73.40
68719;DHT22;55696;52.138;5.444;2022-11-20T01:44:19;2.10;73.70
68719;DHT22;55696;52.138;5.444;2022-11-20T01:47:00;2.00;73.80
68719;DHT22;55696;52.138;5.444;2022-11-20T01:49:34;2.00;74.10
68719;DHT22;55696;52.138;5.444;2022-11-20T01:52:16;1.90;71.80
68719;DHT22;55696;52.138;5.444;2022-11-20T01:54:56;1.90;73.90
68719;DHT22;55696;52.138;5.444;2022-11-20T01:57:25;2.20;74.90
68719;DHT22;55696;52.138;5.444;2022-11-20T01:59:59;1.90;74.00
68719;DHT22;55696;52.138;5.444;2022-11-20T02:02:27;1.80;73.90
68719;DHT22;55696;52.138;5.444;2022-11-20T02:04:56;1.80;73.10
68719;DHT22;55696;52.138;5.444;2022-11-20T02:07:27;1.80;74.40
68719;DHT22;55696;52.138;5.444;2022-11-20T02:09:55;1.80;73.60
68719;DHT22;55696;52.138;5.444;2022-11-20T02:12:24;1.90;72.80
68719;DHT22;55696;52.138;5.444;2022-11-20T02:15:10;1.80;72.60
68719;DHT22;55696;52.138;5.444;2022-11-20T02:17:37;2.20;73.30
68719;DHT22;55696;52.138;5.444;2022-11-20T02:20:04;1.70;73.10
68719;DHT22;55696;52.138;5.444;2022-11-20T02:22:43;1.70;73.50
68719;DHT22;55696;52.138;5.444;2022-11-20T02:25:14;1.80;74.70
68719;DHT22;55696;52.138;5.444;2022-11-20T02:27:40;1.80;74.20
68719;DHT22;55696;52.138;5.444;2022-11-20T02:30:08;1.80;73.20
68719;DHT22;55696;52.138;5.444;2022-11-20T02:32:38;1.80;73.50
68719;DHT22;55696;52.138;5.444;2022-11-20T02:35:35;1.70;73.60
68719;DHT22;55696;52.138;5.444;2022-11-20T02:37:59;1.80;74.80
68719;DHT22;55696;52.138;5.444;2022-11-20T02:40:27;2.40;74.70
68719;DHT22;55696;52.138;5.444;2022-11-20T02:42:55;1.80;73.10
68719;DHT22;55696;52.138;5.444;2022-11-20T02:45:23;1.70;74.90
68719;DHT22;55696;52.138;5.444;2022-11-20T02:47:50;1.70;74.90
68719;DHT22;55696;52.138;5.444;2022-11-20T02:50:17;1.70;73.50
68719;DHT22;55696;52.138;5.444;2022-11-20T02:52:44;1.60;73.60
68719;DHT22;55696;52.138;5.444;2022-11-20T02:55:11;1.60;73.20
68719;DHT22;55696;52.138;5.444;2022-11-20T02:57:38;1.60;73.80
68719;DHT22;55696;52.138;5.444;2022-11-20T03:00:05;1.50;73.20
68719;DHT22;55696;52.138;5.444;2022-11-20T03:02:33;1.50;74.00
68719;DHT22;55696;52.138;5.444;2022-11-20T03:05:00;1.50;73.40
68719;DHT22;55696;52.138;5.444;2022-11-20T03:07:27;1.40;73.30
68719;DHT22;55696;52.138;5.444;2022-11-20T03:09:54;2.10;73.60
68719;DHT22;55696;52.138;5.444;2022-11-20T03:12:20;2.40;73.70
68719;DHT22;55696;52.138;5.444;2022-11-20T03:14:47;1.40;73.30
68719;DHT22;55696;52.138;5.444;2022-11-20T03:17:18;1.40;73.40
68719;DHT22;55696;52.138;5.444;2022-11-20T03:19:45;1.40;73.20
68719;DHT22;55696;52.138;5.444;2022-11-20T03:22:12;1.40;73.20
68719;DHT22;55696;52.138;5.444;2022-11-20T03:24:38;1.30;73.10
68719;DHT22;55696;52.138;5.444;2022-11-20T03:27:05;2.40;73.70
68719;DHT22;55696;52.138;5.444;2022-11-20T03:29:32;1.40;73.40
68719;DHT22;55696;52.138;5.444;2022-11-20T03:31:59;1.30;73.30
68719;DHT22;55696;52.138;5.444;2022-11-20T03:34:25;2.10;74.20
68719;DHT22;55696;52.138;5.444;2022-11-20T03:36:52;1.40;73.40
68719;DHT22;55696;52.138;5.444;2022-11-20T03:39:19;1.40;73.40
68719;DHT22;55696;52.138;5.444;2022-11-20T03:41:46;1.50;73.40
68719;DHT22;55696;52.138;5.444;2022-11-20T03:44:12;1.40;73.40
68719;DHT22;55696;52.138;5.444;2022-11-20T03:46:39;1.40;73.50
68719;DHT22;55696;52.138;5.444;2022-11-20T03:49:06;1.40;73.50
68719;DHT22;55696;52.138;5.444;2022-11-20T03:51:34;1.30;73.40
68719;DHT22;55696;52.138;5.444;2022-11-20T03:54:06;2.30;75.10
68719;DHT22;55696;52.138;5.444;2022-11-20T03:56:35;1.30;75.00
68719;DHT22;55696;52.138;5.444;2022-11-20T03:59:03;1.30;74.80
68719;DHT22;55696;52.138;5.444;2022-11-20T04:01:32;1.20;74.10
68719;DHT22;55696;52.138;5.444;2022-11-20T04:04:00;1.20;74.70
68719;DHT22;55696;52.138;5.444;2022-11-20T04:06:29;2.30;74.50
68719;DHT22;55696;52.138;5.444;2022-11-20T04:08:57;1.70;75.10
68719;DHT22;55696;52.138;5.444;2022-11-20T04:11:26;1.70;74.80
68719;DHT22;55696;52.138;5.444;2022-11-20T04:14:02;2.00;75.30
68719;DHT22;55696;52.138;5.444;2022-11-20T04:16:31;1.20;75.20
68719;DHT22;55696;52.138;5.444;2022-11-20T04:19:00;1.10;74.60
68719;DHT22;55696;52.138;5.444;2022-11-20T04:21:27;1.10;75.00
68719;DHT22;55696;52.138;5.444;2022-11-20T04:23:55;1.50;74.50
68719;DHT22;55696;52.138;5.444;2022-11-20T04:26:23;1.10;74.10
68719;DHT22;55696;52.138;5.444;2022-11-20T04:28:51;1.10;74.70
68719;DHT22;55696;52.138;5.444;2022-11-20T04:31:22;1.10;73.60
68719;DHT22;55696;52.138;5.444;2022-11-20T04:33:50;1.10;74.90
68719;DHT22;55696;52.138;5.444;2022-11-20T04:36:21;1.10;74.00
68719;DHT22;55696;52.138;5.444;2022-11-20T04:39:03;1.10;74.60
68719;DHT22;55696;52.138;5.444;2022-11-20T04:41:32;1.20;75.90
68719;DHT22;55696;52.138;5.444;2022-11-20T04:44:00;1.10;74.70
68719;DHT22;55696;52.138;5.444;2022-11-20T04:46:31;1.80;74.80
68719;DHT22;55696;52.138;5.444;2022-11-20T04:48:59;1.10;74.70
68719;DHT22;55696;52.138;5.444;2022-11-20T04:51:26;1.00;74.30
68719;DHT22;55696;52.138;5.444;2022-11-20T04:53:53;1.10;74.10
68719;DHT22;55696;52.138;5.444;2022-11-20T04:56:20;1.10;74.60
68719;DHT22;55696;52.138;5.444;2022-11-20T04:58:47;1.10;73.50
68719;DHT22;55696;52.138;5.444;2022-11-20T05:01:22;1.00;73.60
68719;DHT22;55696;52.138;5.444;2022-11-20T05:03:50;1.90;76.10
68719;DHT22;55696;52.138;5.444;2022-11-20T05:06:19;1.30;73.90
68719;DHT22;55696;52.138;5.444;2022-11-20T05:08:46;0.90;74.70
68719;DHT22;55696;52.138;5.444;2022-11-20T05:11:17;1.80;74.60
68719;DHT22;55696;52.138;5.444;2022-11-20T05:13:44;1.40;75.20
68719;DHT22;55696;52.138;5.444;2022-11-20T05:16:19;1.60;73.70
68719;DHT22;55696;52.138;5.444;2022-11-20T05:18:46;0.90;75.20
68719;DHT22;55696;52.138;5.444;2022-11-20T05:21:13;0.80;73.40
68719;DHT22;55696;52.138;5.444;2022-11-20T05:23:40;0.80;73.70
68719;DHT22;55696;52.138;5.444;2022-11-20T05:26:08;1.60;74.00
68719;DHT22;55696;52.138;5.444;2022-11-20T05:28:38;1.30;74.80
68719;DHT22;55696;52.138;5.444;2022-11-20T05:31:09;0.70;73.70
68719;DHT22;55696;52.138;5.444;2022-11-20T05:33:40;0.70;74.10
68719;DHT22;55696;52.138;5.444;2022-11-20T05:36:07;0.90;75.20
68719;DHT22;55696;52.138;5.444;2022-11-20T05:38:35;0.80;73.70
68719;DHT22;55696;52.138;5.444;2022-11-20T05:41:09;0.70;73.50
68719;DHT22;55696;52.138;5.444;2022-11-20T05:43:38;1.10;75.80
68719;DHT22;55696;52.138;5.444;2022-11-20T05:46:06;0.70;74.70
68719;DHT22;55696;52.138;5.444;2022-11-20T05:48:34;0.50;74.50
68719;DHT22;55696;52.138;5.444;2022-11-20T05:51:03;0.70;74.30
68719;DHT22;55696;52.138;5.444;2022-11-20T05:53:32;0.60;74.60
68719;DHT22;55696;52.138;5.444;2022-11-20T05:56:05;0.60;74.80
68719;DHT22;55696;52.138;5.444;2022-11-20T05:58:33;0.50;74.90
68719;DHT22;55696;52.138;5.444;2022-11-20T06:01:13;0.40;73.80
68719;DHT22;55696;52.138;5.444;2022-11-20T06:03:41;0.50;75.00
68719;DHT22;55696;52.138;5.444;2022-11-20T06:06:14;0.40;74.20
68719;DHT22;55696;52.138;5.444;2022-11-20T06:08:41;1.50;74.60
68719;DHT22;55696;52.138;5.444;2022-11-20T06:11:10;0.60;73.60
68719;DHT22;55696;52.138;5.444;2022-11-20T06:13:37;0.40;74.50
68719;DHT22;55696;52.138;5.444;2022-11-20T06:16:09;0.30;73.60
68719;DHT22;55696;52.138;5.444;2022-11-20T06:18:36;1.20;74.90
68719;DHT22;55696;52.138;5.444;2022-11-20T06:21:06;0.30;73.80
68719;DHT22;55696;52.138;5.444;2022-11-20T06:23:34;0.40;75.30
68719;DHT22;55696;52.138;5.444;2022-11-20T06:26:07;1.30;74.90
68719;DHT22;55696;52.138;5.444;2022-11-20T06:28:34;0.50;75.80
68719;DHT22;55696;52.138;5.444;2022-11-20T06:31:01;0.50;74.50
68719;DHT22;55696;52.138;5.444;2022-11-20T06:33:28;0.40;74.40
68719;DHT22;55696;52.138;5.444;2022-11-20T06:35:59;0.50;74.00
68719;DHT22;55696;52.138;5.444;2022-11-20T06:38:33;0.50;75.70
68719;DHT22;55696;52.138;5.444;2022-11-20T06:40:59;0.60;74.10
68719;DHT22;55696;52.138;5.444;2022-11-20T06:43:28;0.50;73.60
68719;DHT22;55696;52.138;5.444;2022-11-20T06:45:57;0.50;75.00
68719;DHT22;55696;52.138;5.444;2022-11-20T06:48:25;1.40;74.70
68719;DHT22;55696;52.138;5.444;2022-11-20T06:50:52;0.60;74.10
68719;DHT22;55696;52.138;5.444;2022-11-20T06:53:19;0.60;73.50
68719;DHT22;55696;52.138;5.444;2022-11-20T06:55:46;1.60;74.00
68719;DHT22;55696;52.138;5.444;2022-11-20T06:58:14;0.50;74.00
68719;DHT22;55696;52.138;5.444;2022-11-20T07:00:41;0.80;74.20
68719;DHT22;55696;52.138;5.444;2022-11-20T07:03:09;1.20;74.00
68719;DHT22;55696;52.138;5.444;2022-11-20T07:05:36;0.80;74.30
68719;DHT22;55696;52.138;5.444;2022-11-20T07:08:05;0.70;73.40
68719;DHT22;55696;52.138;5.444;2022-11-20T07:10:32;0.70;74.00
68719;DHT22;55696;52.138;5.444;2022-11-20T07:12:59;0.60;73.50
68719;DHT22;55696;52.138;5.444;2022-11-20T07:15:26;0.70;73.10
68719;DHT22;55696;52.138;5.444;2022-11-20T07:17:53;0.70;73.60
68719;DHT22;55696;52.138;5.444;2022-11-20T07:20:20;0.70;73.20
68719;DHT22;55696;52.138;5.444;2022-11-20T07:22:46;0.60;73.10
68719;DHT22;55696;52.138;5.444;2022-11-20T07:25:13;1.80;73.80
68719;DHT22;55696;52.138;5.444;2022-11-20T07:27:40;1.60;73.70
68719;DHT22;55696;52.138;5.444;2022-11-20T07:30:07;1.40;73.60
68719;DHT22;55696;52.138;5.444;2022-11-20T07:32:33;0.60;73.50
68719;DHT22;55696;52.138;5.444;2022-11-20T07:35:00;1.40;73.70
68719;DHT22;55696;52.138;5.444;2022-11-20T07:37:27;0.70;73.30
68719;DHT22;55696;52.138;5.444;2022-11-20T07:39:53;0.80;73.40
68719;DHT22;55696;52.138;5.444;2022-11-20T07:42:20;1.60;73.60
68719;DHT22;55696;52.138;5.444;2022-11-20T07:44:50;1.60;73.30
68719;DHT22;55696;52.138;5.444;2022-11-20T07:47:16;0.90;73.00
68719;DHT22;55696;52.138;5.444;2022-11-20T07:49:43;0.90;73.10
68719;DHT22;55696;52.138;5.444;2022-11-20T07:52:10;1.50;73.30
68719;DHT22;55696;52.138;5.444;2022-11-20T07:54:36;1.10;73.00
68719;DHT22;55696;52.138;5.444;2022-11-20T07:57:04;1.10;72.90
68719;DHT22;55696;52.138;5.444;2022-11-20T07:59:30;1.10;73.10
68719;DHT22;55696;52.138;5.444;2022-11-20T08:01:57;1.20;73.00
68719;DHT22;55696;52.138;5.444;2022-11-20T08:04:24;2.20;73.30
68719;DHT22;55696;52.138;5.444;2022-11-20T08:06:52;2.30;73.20
68719;DHT22;55696;52.138;5.444;2022-11-20T08:09:19;1.50;73.90
68719;DHT22;55696;52.138;5.444;2022-11-20T08:11:46;1.60;72.50
68719;DHT22;55696;52.138;5.444;2022-11-20T08:14:31;2.50;72.40
68719;DHT22;55696;52.138;5.444;2022-11-20T08:16:58;1.80;72.60
68719;DHT22;55696;52.138;5.444;2022-11-20T08:19:25;1.70;72.30
68719;DHT22;55696;52.138;5.444;2022-11-20T08:21:52;1.80;72.40
68719;DHT22;55696;52.138;5.444;2022-11-20T08:24:19;1.90;72.50
68719;DHT22;55696;52.138;5.444;2022-11-20T08:26:45;2.00;72.60
68719;DHT22;55696;52.138;5.444;2022-11-20T08:29:12;2.00;72.20
68719;DHT22;55696;52.138;5.444;2022-11-20T08:31:39;2.10;72.10
68719;DHT22;55696;52.138;5.444;2022-11-20T08:34:06;2.20;72.10
68719;DHT22;55696;52.138;5.444;2022-11-20T08:36:35;2.20;72.20
68719;DHT22;55696;52.138;5.444;2022-11-20T08:39:03;2.30;72.40
68719;DHT22;55696;52.138;5.444;2022-11-20T08:41:30;2.30;73.00
68719;DHT22;55696;52.138;5.444;2022-11-20T08:44:00;2.30;72.90
68719;DHT22;55696;52.138;5.444;2022-11-20T08:46:34;2.40;73.40
68719;DHT22;55696;52.138;5.444;2022-11-20T08:49:04;2.50;74.10
68719;DHT22;55696;52.138;5.444;2022-11-20T08:51:31;2.50;73.20
68719;DHT22;55696;52.138;5.444;2022-11-20T08:53:58;2.50;72.00
68719;DHT22;55696;52.138;5.444;2022-11-20T08:56:24;2.70;72.20
68719;DHT22;55696;52.138;5.444;2022-11-20T08:58:51;2.70;72.20
68719;DHT22;55696;52.138;5.444;2022-11-20T09:01:38;2.70;72.50
68719;DHT22;55696;52.138;5.444;2022-11-20T09:04:05;2.90;72.00
68719;DHT22;55696;52.138;5.444;2022-11-20T09:06:32;3.70;72.40
68719;DHT22;55696;52.138;5.444;2022-11-20T09:08:59;2.90;71.90
68719;DHT22;55696;52.138;5.444;2022-11-20T09:11:32;3.10;72.10
68719;DHT22;55696;52.138;5.444;2022-11-20T09:13:59;3.10;72.40
68719;DHT22;55696;52.138;5.444;2022-11-20T09:16:26;3.10;71.90
68719;DHT22;55696;52.138;5.444;2022-11-20T09:18:53;3.10;71.90
68719;DHT22;55696;52.138;5.444;2022-11-20T09:21:39;3.30;72.00
68719;DHT22;55696;52.138;5.444;2022-11-20T09:24:06;3.40;71.80
68719;DHT22;55696;52.138;5.444;2022-11-20T09:26:33;3.50;72.10
68719;DHT22;55696;52.138;5.444;2022-11-20T09:29:00;3.50;71.80
68719;DHT22;55696;52.138;5.444;2022-11-20T09:31:26;3.60;71.80
68719;DHT22;55696;52.138;5.444;2022-11-20T09:33:53;3.70;71.70
68719;DHT22;55696;52.138;5.444;2022-11-20T09:36:20;3.70;71.80
68719;DHT22;55696;52.138;5.444;2022-11-20T09:38:47;3.70;72.20
68719;DHT22;55696;52.138;5.444;2022-11-20T09:44:36;3.90;73.90
68719;DHT22;55696;52.138;5.444;2022-11-20T09:50:33;4.10;73.90
68719;DHT22;55696;52.138;5.444;2022-11-20T09:55:37;4.20;73.70
68719;DHT22;55696;52.138;5.444;2022-11-20T10:00:47;4.40;73.10
68719;DHT22;55696;52.138;5.444;2022-11-20T10:03:33;4.50;72.20
68719;DHT22;55696;52.138;5.444;2022-11-20T10:06:02;4.50;73.00
68719;DHT22;55696;52.138;5.444;2022-11-20T10:08:44;4.40;72.40
68719;DHT22;55696;52.138;5.444;2022-11-20T10:25:19;4.90;72.10
68719;DHT22;55696;52.138;5.444;2022-11-20T10:30:41;5.00;72.70
68719;DHT22;55696;52.138;5.444;2022-11-20T10:33:39;5.00;72.20
68719;DHT22;55696;52.138;5.444;2022-11-20T10:36:40;5.10;73.10
68719;DHT22;55696;52.138;5.444;2022-11-20T10:39:16;5.00;71.80
68719;DHT22;55696;52.138;5.444;2022-11-20T10:41:50;5.20;72.30
68719;DHT22;55696;52.138;5.444;2022-11-20T10:44:26;5.20;72.50
68719;DHT22;55696;52.138;5.444;2022-11-20T10:47:14;5.20;72.70
68719;DHT22;55696;52.138;5.444;2022-11-20T10:49:43;6.20;72.30
68719;DHT22;55696;52.138;5.444;2022-11-20T10:57:57;5.60;72.70
68719;DHT22;55696;52.138;5.444;2022-11-20T11:00:30;5.60;71.90
68719;DHT22;55696;52.138;5.444;2022-11-20T11:02:57;5.60;72.30
68719;DHT22;55696;52.138;5.444;2022-11-20T11:05:34;5.70;70.80
68719;DHT22;55696;52.138;5.444;2022-11-20T11:08:05;5.80;72.80
68719;DHT22;55696;52.138;5.444;2022-11-20T11:10:44;5.40;72.00
68719;DHT22;55696;52.138;5.444;2022-11-20T11:13:24;5.80;72.30
68719;DHT22;55696;52.138;5.444;2022-11-20T11:15:52;5.80;72.90
68719;DHT22;55696;52.138;5.444;2022-11-20T11:18:33;6.00;71.00
68719;DHT22;55696;52.138;5.444;2022-11-20T11:21:03;6.00;72.20
68719;DHT22;55696;52.138;5.444;2022-11-20T11:23:39;5.90;71.70
68719;DHT22;55696;52.138;5.444;2022-11-20T11:26:20;6.00;72.90
68719;DHT22;55696;52.138;5.444;2022-11-20T11:29:02;6.00;71.30
68719;DHT22;55696;52.138;5.444;2022-11-20T11:31:34;6.00;72.60
68719;DHT22;55696;52.138;5.444;2022-11-20T11:36:33;6.10;72.80
68719;DHT22;55696;52.138;5.444;2022-11-20T11:39:02;6.10;72.10
68719;DHT22;55696;52.138;5.444;2022-11-20T11:41:32;6.10;71.70
68719;DHT22;55696;52.138;5.444;2022-11-20T11:44:17;6.30;72.80
68719;DHT22;55696;52.138;5.444;2022-11-20T11:47:08;6.30;73.00
68719;DHT22;55696;52.138;5.444;2022-11-20T11:49:36;6.30;72.60
68719;DHT22;55696;52.138;5.444;2022-11-20T11:52:18;6.30;71.40
68719;DHT22;55696;52.138;5.444;2022-11-20T11:54:53;6.30;73.10
68719;DHT22;55696;52.138;5.444;2022-11-20T11:57:40;6.30;72.70
68719;DHT22;55696;52.138;5.444;2022-11-20T12:00:12;6.30;72.90
68719;DHT22;55696;52.138;5.444;2022-11-20T12:05:32;6.20;73.80
68719;DHT22;55696;52.138;5.444;2022-11-20T12:08:27;6.30;74.40
68719;DHT22;55696;52.138;5.444;2022-11-20T12:14:00;6.40;73.10
68719;DHT22;55696;52.138;5.444;2022-11-20T12:16:34;6.40;73.70
68719;DHT22;55696;52.138;5.444;2022-11-20T12:19:01;6.50;74.00
68719;DHT22;55696;52.138;5.444;2022-11-20T12:21:36;6.50;72.10
68719;DHT22;55696;52.138;5.444;2022-11-20T12:35:11;6.70;74.90
68719;DHT22;55696;52.138;5.444;2022-11-20T12:40:39;6.90;74.40
68719;DHT22;55696;52.138;5.444;2022-11-20T12:54:34;6.60;75.30
68719;DHT22;55696;52.138;5.444;2022-11-20T12:57:15;6.70;74.90
68719;DHT22;55696;52.138;5.444;2022-11-20T13:00:07;6.60;75.70
68719;DHT22;55696;52.138;5.444;2022-11-20T13:02:56;6.80;75.40
68719;DHT22;55696;52.138;5.444;2022-11-20T13:05:46;6.80;75.80
68719;DHT22;55696;52.138;5.444;2022-11-20T13:08:47;6.90;75.10
68719;DHT22;55696;52.138;5.444;2022-11-20T13:11:19;6.80;75.20
68719;DHT22;55696;52.138;5.444;2022-11-20T13:14:00;6.90;75.20
68719;DHT22;55696;52.138;5.444;2022-11-20T13:16:38;7.00;74.90
68719;DHT22;55696;52.138;5.444;2022-11-20T13:19:12;7.00;72.70
68719;DHT22;55696;52.138;5.444;2022-11-20T13:21:41;6.90;74.90
68719;DHT22;55696;52.138;5.444;2022-11-20T13:27:21;6.90;75.20
68719;DHT22;55696;52.138;5.444;2022-11-20T13:30:00;7.00;75.60
68719;DHT22;55696;52.138;5.444;2022-11-20T13:32:27;6.90;75.20
68719;DHT22;55696;52.138;5.444;2022-11-20T13:35:04;7.10;73.30
68719;DHT22;55696;52.138;5.444;2022-11-20T13:37:36;7.00;75.50
68719;DHT22;55696;52.138;5.444;2022-11-20T13:47:51;6.80;75.00
68719;DHT22;55696;52.138;5.444;2022-11-20T13:50:19;6.90;75.40
68719;DHT22;55696;52.138;5.444;2022-11-20T13:53:29;6.90;74.60
68719;DHT22;55696;52.138;5.444;2022-11-20T13:56:09;7.00;76.30
68719;DHT22;55696;52.138;5.444;2022-11-20T13:59:14;7.00;73.80
68719;DHT22;55696;52.138;5.444;2022-11-20T14:01:45;7.00;76.00
68719;DHT22;55696;52.138;5.444;2022-11-20T14:04:20;6.90;75.70
68719;DHT22;55696;52.138;5.444;2022-11-20T14:06:49;6.90;76.30
68719;DHT22;55696;52.138;5.444;2022-11-20T14:09:30;6.90;74.80
68719;DHT22;55696;52.138;5.444;2022-11-20T14:11:57;6.90;76.60
68719;DHT22;55696;52.138;5.444;2022-11-20T14:14:28;6.70;74.60
68719;DHT22;55696;52.138;5.444;2022-11-20T14:17:34;7.90;76.70
68719;DHT22;55696;52.138;5.444;2022-11-20T14:20:06;6.80;77.10
68719;DHT22;55696;52.138;5.444;2022-11-20T14:22:37;6.80;76.60
68719;DHT22;55696;52.138;5.444;2022-11-20T14:27:37;6.80;75.00
68719;DHT22;55696;52.138;5.444;2022-11-20T14:30:05;6.90;76.40
68719;DHT22;55696;52.138;5.444;2022-11-20T14:32:34;6.90;75.90
68719;DHT22;55696;52.138;5.444;2022-11-20T14:35:07;6.90;76.30
68719;DHT22;55696;52.138;5.444;2022-11-20T14:37:38;6.90;76.40
68719;DHT22;55696;52.138;5.444;2022-11-20T14:40:33;7.00;75.90
68719;DHT22;55696;52.138;5.444;2022-11-20T14:43:15;7.00;76.40
68719;DHT22;55696;52.138;5.444;2022-11-20T14:45:48;6.90;75.40
68719;DHT22;55696;52.138;5.444;2022-11-20T14:48:15;7.00;75.80
68719;DHT22;55696;52.138;5.444;2022-11-20T14:50:42;6.80;75.50
68719;DHT22;55696;52.138;5.444;2022-11-20T14:53:09;7.00;75.00
68719;DHT22;55696;52.138;5.444;2022-11-20T14:55:37;7.00;75.00
68719;DHT22;55696;52.138;5.444;2022-11-20T14:58:18;6.90;76.30
68719;DHT22;55696;52.138;5.444;2022-11-20T15:01:05;7.00;76.10
68719;DHT22;55696;52.138;5.444;2022-11-20T15:03:38;7.00;77.00
68719;DHT22;55696;52.138;5.444;2022-11-20T15:06:06;6.80;76.90
68719;DHT22;55696;52.138;5.444;2022-11-20T15:08:34;6.90;76.20
68719;DHT22;55696;52.138;5.444;2022-11-20T15:11:02;6.90;76.10
68719;DHT22;55696;52.138;5.444;2022-11-20T15:13:34;7.00;76.00
68719;DHT22;55696;52.138;5.444;2022-11-20T15:16:04;7.00;77.30
68719;DHT22;55696;52.138;5.444;2022-11-20T15:18:40;7.00;76.40
68719;DHT22;55696;52.138;5.444;2022-11-20T15:21:19;6.90;77.30
68719;DHT22;55696;52.138;5.444;2022-11-20T15:23:47;6.90;77.50
68719;DHT22;55696;52.138;5.444;2022-11-20T15:26:22;6.90;76.30
68719;DHT22;55696;52.138;5.444;2022-11-20T15:28:50;6.80;77.40
68719;DHT22;55696;52.138;5.444;2022-11-20T15:31:20;6.90;75.90
68719;DHT22;55696;52.138;5.444;2022-11-20T15:33:47;6.90;77.10
68719;DHT22;55696;52.138;5.444;2022-11-20T15:36:14;6.90;76.20
68719;DHT22;55696;52.138;5.444;2022-11-20T15:38:40;6.90;76.00
68719;DHT22;55696;52.138;5.444;2022-11-20T15:41:08;6.80;75.80
68719;DHT22;55696;52.138;5.444;2022-11-20T15:43:35;6.80;76.80
68719;DHT22;55696;52.138;5.444;2022-11-20T15:46:09;6.90;76.20
68719;DHT22;55696;52.138;5.444;2022-11-20T15:48:44;6.90;78.20
68719;DHT22;55696;52.138;5.444;2022-11-20T15:53:49;7.10;77.80
68719;DHT22;55696;52.138;5.444;2022-11-20T15:56:16;7.10;76.00
68719;DHT22;55696;52.138;5.444;2022-11-20T15:58:43;7.10;75.80
68719;DHT22;55696;52.138;5.444;2022-11-20T16:01:11;7.20;75.60
68719;DHT22;55696;52.138;5.444;2022-11-20T16:03:38;7.20;76.80
68719;DHT22;55696;52.138;5.444;2022-11-20T16:06:05;7.10;75.80
68719;DHT22;55696;52.138;5.444;2022-11-20T16:08:32;7.10;75.50
68719;DHT22;55696;52.138;5.444;2022-11-20T16:10:59;7.10;75.90
68719;DHT22;55696;52.138;5.444;2022-11-20T16:13:25;7.10;76.20
68719;DHT22;55696;52.138;5.444;2022-11-20T16:16:23;7.10;75.60
68719;DHT22;55696;52.138;5.444;2022-11-20T16:18:50;7.20;78.20
68719;DHT22;55696;52.138;5.444;2022-11-20T16:21:17;7.20;75.90
68719;DHT22;55696;52.138;5.444;2022-11-20T16:23:44;7.10;76.30
68719;DHT22;55696;52.138;5.444;2022-11-20T16:26:16;7.10;76.00
68719;DHT22;55696;52.138;5.444;2022-11-20T16:28:43;7.20;77.80
68719;DHT22;55696;52.138;5.444;2022-11-20T16:31:12;7.30;75.80
68719;DHT22;55696;52.138;5.444;2022-11-20T16:33:39;7.20;76.90
68719;DHT22;55696;52.138;5.444;2022-11-20T16:36:08;7.10;76.30
68719;DHT22;55696;52.138;5.444;2022-11-20T16:38:34;7.10;76.90
68719;DHT22;55696;52.138;5.444;2022-11-20T16:41:03;7.20;75.70
68719;DHT22;55696;52.138;5.444;2022-11-20T16:43:29;7.20;76.60
68719;DHT22;55696;52.138;5.444;2022-11-20T16:45:56;7.30;76.00
68719;DHT22;55696;52.138;5.444;2022-11-20T16:48:23;7.30;75.80
68719;DHT22;55696;52.138;5.444;2022-11-20T16:50:52;7.30;75.50
68719;DHT22;55696;52.138;5.444;2022-11-20T16:53:20;7.20;77.10
68719;DHT22;55696;52.138;5.444;2022-11-20T16:55:47;7.20;77.10
68719;DHT22;55696;52.138;5.444;2022-11-20T16:58:14;7.20;76.30
68719;DHT22;55696;52.138;5.444;2022-11-20T17:00:41;7.20;76.90
68719;DHT22;55696;52.138;5.444;2022-11-20T17:03:16;7.20;77.70
68719;DHT22;55696;52.138;5.444;2022-11-20T17:05:46;7.20;76.70
68719;DHT22;55696;52.138;5.444;2022-11-20T17:08:12;7.20;76.00
68719;DHT22;55696;52.138;5.444;2022-11-20T17:10:39;7.20;76.40
68719;DHT22;55696;52.138;5.444;2022-11-20T17:13:06;7.20;76.50
68719;DHT22;55696;52.138;5.444;2022-11-20T17:15:32;7.20;76.50
68719;DHT22;55696;52.138;5.444;2022-11-20T17:17:59;7.10;76.40
68719;DHT22;55696;52.138;5.444;2022-11-20T17:20:29;7.20;76.20
68719;DHT22;55696;52.138;5.444;2022-11-20T17:22:56;7.20;76.50
68719;DHT22;55696;52.138;5.444;2022-11-20T17:25:23;7.20;76.40
68719;DHT22;55696;52.138;5.444;2022-11-20T17:27:50;7.20;76.30
68719;DHT22;55696;52.138;5.444;2022-11-20T17:30:16;7.30;75.90
68719;DHT22;55696;52.138;5.444;2022-11-20T17:32:43;7.40;76.50
68719;DHT22;55696;52.138;5.444;2022-11-20T17:35:12;7.40;76.30